Terminal Aerodrome Forecast
Issued by NWS Jackson, KY

Home | Current Version | Previous Version | Text Only | Print | Product List | Glossary On
Versions: 1 2 3 4 5 6 7 8 9 10 11 12 13 14 15 16 17 18 19
000
FTUS43 KJKL 291451 AAB
TAFLOZ
TAF AMD
KLOZ 291451Z 2915/3012 VRB03KT 5SM BR OVC005
     FM291530 00000KT 6SM BR BKN008
     FM291600 VRB03KT P6SM BKN015
     FM291700 VRB03KT P6SM VCTS BKN025CB
     FM291900 30003KT P6SM VCTS SCT035CB
     FM300400 00000KT P6SM SCT250=

USA.gov is the U.S. government's official web portal to all federal, state and local government web resources and services.